createdAt,value
2023-03-08T00:02:57.001Z,6.70
2023-03-08T00:06:58.153Z,6.80
2023-03-08T00:10:59.410Z,6.90
2023-03-08T00:15:00.608Z,6.90
2023-03-08T00:19:01.779Z,7.00
2023-03-08T00:23:02.966Z,6.90
2023-03-08T00:27:04.189Z,6.90
2023-03-08T00:31:11.030Z,6.90
2023-03-08T00:35:12.161Z,6.90
2023-03-08T00:39:15.357Z,6.90
2023-03-08T00:43:16.547Z,7.00
2023-03-08T00:47:18.052Z,7.00
2023-03-08T00:51:20.014Z,7.00
2023-03-08T00:55:21.180Z,6.90
2023-03-08T00:59:22.434Z,6.90
2023-03-08T01:03:23.796Z,7.00
2023-03-08T01:07:26.860Z,7.00
2023-03-08T01:11:28.028Z,7.00
2023-03-08T01:15:29.179Z,7.00
2023-03-08T01:19:30.336Z,7.00
2023-03-08T01:23:31.801Z,6.90
2023-03-08T01:27:32.948Z,6.90
2023-03-08T01:31:34.173Z,7.00
2023-03-08T01:35:37.468Z,7.00
2023-03-08T01:39:38.589Z,6.90
2023-03-08T01:43:40.146Z,7.00
2023-03-08T01:47:41.303Z,7.00
2023-03-08T01:51:48.915Z,7.00
2023-03-08T01:55:50.195Z,7.10
2023-03-08T01:59:55.142Z,7.10
2023-03-08T02:03:56.419Z,6.90
2023-03-08T02:07:57.864Z,6.90
2023-03-08T02:12:02.819Z,6.90
2023-03-08T02:16:07.441Z,7.00
2023-03-08T02:20:15.836Z,6.80
2023-03-08T02:24:24.615Z,6.90
2023-03-08T02:28:27.087Z,7.10
2023-03-08T02:32:28.259Z,6.90
2023-03-08T02:36:29.401Z,6.80
2023-03-08T02:40:30.538Z,6.70
2023-03-08T02:44:31.749Z,6.70
2023-03-08T02:48:32.809Z,6.70
2023-03-08T02:52:33.974Z,6.80
2023-03-08T02:56:36.610Z,6.60
2023-03-08T03:00:38.373Z,6.70
2023-03-08T03:04:39.554Z,6.80
2023-03-08T03:08:40.799Z,6.60
2023-03-08T03:12:43.246Z,6.60
2023-03-08T03:16:44.389Z,6.40
2023-03-08T03:20:45.446Z,6.50
2023-03-08T03:24:46.592Z,6.70
2023-03-08T03:28:48.534Z,6.70
2023-03-08T03:32:49.893Z,6.60
2023-03-08T03:36:51.029Z,6.70
2023-03-08T03:41:02.114Z,6.80
2023-03-08T03:45:03.826Z,6.70
2023-03-08T03:49:04.875Z,6.70
2023-03-08T03:53:06.028Z,6.70
2023-03-08T03:57:07.102Z,6.70
2023-03-08T04:01:10.143Z,6.70
2023-03-08T04:05:11.417Z,6.60
2023-03-08T04:09:15.278Z,6.70
2023-03-08T04:13:16.461Z,6.70
2023-03-08T04:17:18.222Z,6.60
2023-03-08T04:21:19.296Z,6.50
2023-03-08T04:25:20.462Z,6.50
2023-03-08T04:29:21.608Z,6.60
2023-03-08T04:33:23.368Z,6.60
2023-03-08T04:37:25.553Z,6.70
2023-03-08T04:41:26.711Z,6.60
2023-03-08T04:45:27.870Z,6.70
2023-03-08T04:49:29.054Z,6.60
2023-03-08T04:53:31.298Z,6.60
2023-03-08T04:57:34.352Z,6.80
2023-03-08T05:01:35.512Z,6.80
2023-03-08T05:05:36.600Z,6.90
2023-03-08T05:09:37.821Z,7.00
2023-03-08T05:13:38.913Z,7.00
2023-03-08T05:17:40.062Z,6.90
2023-03-08T05:21:41.206Z,7.00
2023-03-08T05:25:45.753Z,7.00
2023-03-08T05:29:46.905Z,7.00
2023-03-08T05:33:50.389Z,6.80
2023-03-08T05:37:51.549Z,6.50
2023-03-08T05:41:52.697Z,6.60
2023-03-08T05:46:01.638Z,6.50
2023-03-08T05:50:03.115Z,6.40
2023-03-08T05:54:04.702Z,6.40
2023-03-08T05:58:06.806Z,6.50
2023-03-08T06:02:08.016Z,6.50
2023-03-08T06:06:09.624Z,6.80
2023-03-08T06:10:11.105Z,6.70
2023-03-08T06:14:13.324Z,6.50
2023-03-08T06:18:14.615Z,6.20
2023-03-08T06:22:16.484Z,6.10
2023-03-08T06:26:17.627Z,6.10
2023-03-08T06:30:18.788Z,6.10
2023-03-08T06:34:21.047Z,6.20
2023-03-08T06:38:22.128Z,6.20
2023-03-08T06:42:38.256Z,6.20
2023-03-08T06:46:26.656Z,5.90
2023-03-08T06:50:27.855Z,5.60
2023-03-08T06:54:29.175Z,5.70
2023-03-08T06:58:31.358Z,5.50
2023-03-08T07:02:32.543Z,5.40
2023-03-08T07:06:33.691Z,5.40
2023-03-08T07:10:34.845Z,5.40
2023-03-08T07:14:36.270Z,5.50
2023-03-08T07:18:37.844Z,5.60
2023-03-08T07:22:41.397Z,5.50
2023-03-08T07:26:42.761Z,5.50
2023-03-08T07:30:52.145Z,5.00
2023-03-08T07:34:53.489Z,5.00
2023-03-08T07:38:55.038Z,4.70
2023-03-08T07:42:56.181Z,4.40
2023-03-08T07:46:57.376Z,4.60
2023-03-08T07:51:05.827Z,4.60
2023-03-08T07:55:07.699Z,4.80
2023-03-08T07:59:08.836Z,4.90
2023-03-08T08:03:10.040Z,4.80
2023-03-08T08:07:14.215Z,4.50
2023-03-08T08:11:19.261Z,4.50
2023-03-08T08:15:20.942Z,4.60
2023-03-08T08:19:22.477Z,4.80
2023-03-08T08:23:23.630Z,4.70
2023-03-08T08:27:24.826Z,5.00
2023-03-08T08:31:30.222Z,5.10
2023-03-08T08:35:42.663Z,5.10
2023-03-08T08:39:34.311Z,5.00
2023-03-08T08:43:36.413Z,4.90
2023-03-08T08:47:37.545Z,4.90
2023-03-08T08:51:38.709Z,4.90
2023-03-08T08:55:41.725Z,4.90
2023-03-08T08:59:43.438Z,4.90
2023-03-08T09:03:46.220Z,4.90
2023-03-08T09:07:47.364Z,5.00
2023-03-08T09:11:54.568Z,4.80
2023-03-08T09:15:51.470Z,4.50
2023-03-08T09:19:52.605Z,4.70
2023-03-08T09:23:55.180Z,4.80
2023-03-08T09:27:56.338Z,4.40
2023-03-08T09:31:58.683Z,4.40
2023-03-08T09:36:00.703Z,4.40
2023-03-08T09:40:03.828Z,4.40
2023-03-08T09:44:27.128Z,4.60
2023-03-08T09:48:29.692Z,4.50
2023-03-08T09:52:42.860Z,4.50
2023-03-08T09:56:50.001Z,4.50
2023-03-08T10:00:51.568Z,4.70
2023-03-08T10:05:17.733Z,4.50
2023-03-08T10:09:25.840Z,4.60
2023-03-08T10:13:30.989Z,4.90
2023-03-08T10:17:38.994Z,5.10
2023-03-08T10:21:42.465Z,5.10
2023-03-08T10:25:45.106Z,5.00
2023-03-08T10:29:54.382Z,5.00
2023-03-08T10:34:02.369Z,4.80
2023-03-08T10:38:06.629Z,4.90
2023-03-08T10:42:14.681Z,5.00
2023-03-08T10:46:21.901Z,4.90
2023-03-08T10:50:36.783Z,5.00
2023-03-08T10:54:37.916Z,5.10
2023-03-08T10:58:39.621Z,5.10
2023-03-08T11:02:40.816Z,5.20
2023-03-08T11:06:42.799Z,5.20
2023-03-08T11:10:44.040Z,5.40
2023-03-08T11:14:45.313Z,5.30
2023-03-08T11:19:07.284Z,5.40
2023-03-08T11:23:29.883Z,5.50
2023-03-08T11:27:51.498Z,5.50
2023-03-08T11:32:19.265Z,5.60
2023-03-08T11:36:27.360Z,5.60
2023-03-08T11:40:48.816Z,5.50
2023-03-08T11:45:16.425Z,5.70
2023-03-08T11:49:48.826Z,5.90
2023-03-08T11:54:10.645Z,6.20
2023-03-08T11:58:19.881Z,6.30
2023-03-08T12:02:24.838Z,6.60
2023-03-08T12:06:36.303Z,6.70
2023-03-08T12:10:44.717Z,6.70
2023-03-08T12:14:59.425Z,7.00
2023-03-08T12:19:13.199Z,6.80
2023-03-08T12:23:27.371Z,6.90
2023-03-08T12:27:32.608Z,6.90
2023-03-08T12:31:40.624Z,7.00
2023-03-08T12:36:00.534Z,7.00
2023-03-08T12:40:10.614Z,7.00
2023-03-08T12:44:29.981Z,7.10
2023-03-08T12:48:41.000Z,7.00
2023-03-08T12:52:42.304Z,7.20
2023-03-08T12:56:54.730Z,7.30
2023-03-08T13:01:03.103Z,7.40
2023-03-08T13:05:33.018Z,7.50
2023-03-08T13:09:55.809Z,7.50
2023-03-08T13:14:00.194Z,7.60
2023-03-08T13:18:08.786Z,8.70
2023-03-08T13:22:13.790Z,9.70
2023-03-08T13:26:49.853Z,10.40
2023-03-08T13:30:46.338Z,10.60
2023-03-08T13:34:54.476Z,10.40
2023-03-08T13:39:07.742Z,9.90
2023-03-08T13:43:12.691Z,9.70
2023-03-08T13:47:23.640Z,9.30
2023-03-08T13:51:27.974Z,9.10
2023-03-08T13:55:35.563Z,8.90
2023-03-08T13:59:37.254Z,8.80
2023-03-08T14:03:39.641Z,8.80
2023-03-08T14:07:40.720Z,8.80
2023-03-08T14:11:42.305Z,8.90
2023-03-08T14:15:56.238Z,8.80
2023-03-08T14:20:00.620Z,9.00
2023-03-08T14:24:08.446Z,8.90
2023-03-08T14:28:32.872Z,8.90
2023-03-08T14:32:35.148Z,9.00
2023-03-08T14:36:36.309Z,8.80
2023-03-08T14:40:41.417Z,8.80
2023-03-08T14:44:44.592Z,8.90
2023-03-08T14:48:49.605Z,8.60
2023-03-08T14:52:53.779Z,8.80
2023-03-08T14:56:54.986Z,8.80
2023-03-08T15:01:00.257Z,8.70
2023-03-08T15:05:02.011Z,8.80
2023-03-08T15:09:06.494Z,8.70
2023-03-08T15:13:19.783Z,8.90
2023-03-08T15:17:22.060Z,9.10
2023-03-08T15:21:25.416Z,9.20
2023-03-08T15:25:32.832Z,9.00
2023-03-08T15:29:36.088Z,9.10
2023-03-08T15:33:37.375Z,9.10
2023-03-08T15:37:39.025Z,9.20
2023-03-08T15:41:40.188Z,9.10
2023-03-08T15:45:41.338Z,9.00
2023-03-08T15:49:42.715Z,8.80
2023-03-08T15:53:44.093Z,8.70
2023-03-08T15:57:45.268Z,8.80
2023-03-08T16:01:46.490Z,8.80
2023-03-08T16:05:47.619Z,9.10
2023-03-08T16:09:48.791Z,9.30
2023-03-08T16:13:51.489Z,9.40
2023-03-08T16:17:52.548Z,9.60
2023-03-08T16:21:53.643Z,9.70
2023-03-08T16:26:14.595Z,9.80
2023-03-08T16:30:11.112Z,9.90
2023-03-08T16:34:12.191Z,9.90
2023-03-08T16:38:13.362Z,9.90
2023-03-08T16:42:15.317Z,10.00
2023-03-08T16:46:19.432Z,10.20
2023-03-08T16:50:20.643Z,10.30
2023-03-08T16:54:22.577Z,10.30
2023-03-08T16:58:23.742Z,10.30
2023-03-08T17:02:24.932Z,10.40
2023-03-08T17:06:28.859Z,10.50
2023-03-08T17:10:30.023Z,10.50
2023-03-08T17:14:33.124Z,10.40
2023-03-08T17:18:34.627Z,10.60
2023-03-08T17:22:35.792Z,10.60
2023-03-08T17:26:46.149Z,10.70
2023-03-08T17:30:47.340Z,10.70
2023-03-08T17:34:48.472Z,10.70
2023-03-08T17:38:52.253Z,10.70
2023-03-08T17:42:53.389Z,10.70
2023-03-08T17:46:54.456Z,10.80
2023-03-08T17:51:05.232Z,10.80
2023-03-08T17:55:06.889Z,10.80
2023-03-08T17:59:12.155Z,10.50
2023-03-08T18:03:13.337Z,9.90
2023-03-08T18:07:16.097Z,9.10
2023-03-08T18:11:17.161Z,8.60
2023-03-08T18:15:18.345Z,8.10
2023-03-08T18:19:19.507Z,8.20
2023-03-08T18:23:21.464Z,8.60
2023-03-08T18:27:22.530Z,9.10
2023-03-08T18:31:25.454Z,9.10
2023-03-08T18:35:26.651Z,9.30
2023-03-08T18:39:27.771Z,9.40
2023-03-08T18:43:30.202Z,9.50
2023-03-08T18:47:31.368Z,9.50
2023-03-08T18:51:34.041Z,9.60
2023-03-08T18:55:35.215Z,9.70
2023-03-08T18:59:36.426Z,9.50
2023-03-08T19:03:39.283Z,9.40
2023-03-08T19:07:40.675Z,9.50
2023-03-08T19:11:42.857Z,9.50
2023-03-08T19:15:44.032Z,9.60
2023-03-08T19:19:45.186Z,9.70
2023-03-08T19:23:47.103Z,10.20
2023-03-08T19:27:49.147Z,9.90
2023-03-08T19:31:59.655Z,9.90
2023-03-08T19:36:00.839Z,10.00
2023-03-08T19:40:01.969Z,10.00
2023-03-08T19:44:06.394Z,9.90
2023-03-08T19:48:07.590Z,9.80
2023-03-08T19:52:12.778Z,9.80
2023-03-08T19:56:19.171Z,9.80
2023-03-08T20:00:20.735Z,9.90
2023-03-08T20:04:22.624Z,9.80
2023-03-08T20:08:23.979Z,9.90
2023-03-08T20:12:25.131Z,10.00
2023-03-08T20:16:27.364Z,10.10
2023-03-08T20:20:28.766Z,10.20
2023-03-08T20:24:30.193Z,10.30
2023-03-08T20:28:31.349Z,10.30
2023-03-08T20:32:32.548Z,10.40
2023-03-08T20:36:33.704Z,10.30
2023-03-08T20:40:34.938Z,10.30
2023-03-08T20:44:36.091Z,10.30
2023-03-08T20:48:39.971Z,10.40
2023-03-08T20:52:41.108Z,10.50
2023-03-08T20:56:42.356Z,10.40
2023-03-08T21:00:43.511Z,10.50
2023-03-08T21:04:44.652Z,10.50
2023-03-08T21:08:46.811Z,10.50
2023-03-08T21:12:48.011Z,10.60
2023-03-08T21:16:49.787Z,10.60
2023-03-08T21:20:50.953Z,10.60
2023-03-08T21:24:52.337Z,10.70
2023-03-08T21:28:56.415Z,10.50
2023-03-08T21:32:57.587Z,10.60
2023-03-08T21:36:58.770Z,10.60
2023-03-08T21:40:59.935Z,10.60
2023-03-08T21:45:01.114Z,10.60
2023-03-08T21:49:02.687Z,10.70
2023-03-08T21:53:03.910Z,10.70
2023-03-08T21:57:05.093Z,10.70
2023-03-08T22:01:06.746Z,10.60
2023-03-08T22:05:08.077Z,10.50
2023-03-08T22:09:09.940Z,10.60
2023-03-08T22:13:11.126Z,10.70
2023-03-08T22:17:12.414Z,10.70
2023-03-08T22:21:13.850Z,10.60
2023-03-08T22:25:15.414Z,10.70
2023-03-08T22:29:16.586Z,10.70
2023-03-08T22:33:17.755Z,10.70
2023-03-08T22:37:18.919Z,10.80
2023-03-08T22:41:22.969Z,10.70
2023-03-08T22:45:24.213Z,10.70
2023-03-08T22:49:25.483Z,10.70
2023-03-08T22:53:26.640Z,10.70
2023-03-08T22:57:27.799Z,10.80
2023-03-08T23:01:30.298Z,11.00
2023-03-08T23:05:31.799Z,10.90
2023-03-08T23:09:33.594Z,10.90
2023-03-08T23:13:34.933Z,10.90
2023-03-08T23:17:36.299Z,11.00
2023-03-08T23:21:37.565Z,11.00
2023-03-08T23:25:39.836Z,11.00
2023-03-08T23:29:41.208Z,11.20
2023-03-08T23:33:42.342Z,11.20
2023-03-08T23:37:43.531Z,11.20
2023-03-08T23:41:44.796Z,11.30
2023-03-08T23:45:46.000Z,11.40
2023-03-08T23:49:48.021Z,11.40
2023-03-08T23:53:51.160Z,11.40
2023-03-08T23:57:52.344Z,11.40
